sensor_id;sensor_type;location;lat;lon;timestamp;temperature;humidity
5850;DHT22;2951;47.712;9.400;2023-07-08T00:01:07;23.20;99.90
5850;DHT22;2951;47.712;9.400;2023-07-08T00:03:35;23.20;99.90
5850;DHT22;2951;47.712;9.400;2023-07-08T00:06:01;23.20;99.90
5850;DHT22;2951;47.712;9.400;2023-07-08T00:08:28;23.10;99.90
5850;DHT22;2951;47.712;9.400;2023-07-08T00:10:55;23.10;99.90
5850;DHT22;2951;47.712;9.400;2023-07-08T00:13:22;23.10;99.90
5850;DHT22;2951;47.712;9.400;2023-07-08T00:15:48;23.00;99.90
5850;DHT22;2951;47.712;9.400;2023-07-08T00:18:16;22.90;99.90
5850;DHT22;2951;47.712;9.400;2023-07-08T00:20:44;22.90;99.90
5850;DHT22;2951;47.712;9.400;2023-07-08T00:23:11;22.90;99.90
5850;DHT22;2951;47.712;9.400;2023-07-08T00:25:39;22.80;99.90
5850;DHT22;2951;47.712;9.400;2023-07-08T00:28:14;22.80;99.90
5850;DHT22;2951;47.712;9.400;2023-07-08T00:30:41;22.70;99.90
5850;DHT22;2951;47.712;9.400;2023-07-08T00:33:08;22.60;99.90
5850;DHT22;2951;47.712;9.400;2023-07-08T00:35:36;22.40;99.90
5850;DHT22;2951;47.712;9.400;2023-07-08T00:43:30;22.00;99.90
5850;DHT22;2951;47.712;9.400;2023-07-08T00:48:37;21.80;99.90
5850;DHT22;2951;47.712;9.400;2023-07-08T00:51:07;21.60;99.90
5850;DHT22;2951;47.712;9.400;2023-07-08T00:53:36;21.60;99.90
5850;DHT22;2951;47.712;9.400;2023-07-08T00:56:05;21.60;99.90
5850;DHT22;2951;47.712;9.400;2023-07-08T00:58:37;21.60;99.90
5850;DHT22;2951;47.712;9.400;2023-07-08T01:01:06;21.50;99.90
5850;DHT22;2951;47.712;9.400;2023-07-08T01:03:35;21.40;99.90
5850;DHT22;2951;47.712;9.400;2023-07-08T01:06:03;21.30;99.90
5850;DHT22;2951;47.712;9.400;2023-07-08T01:08:31;21.30;99.90
5850;DHT22;2951;47.712;9.400;2023-07-08T01:11:00;21.20;99.90
5850;DHT22;2951;47.712;9.400;2023-07-08T01:13:30;21.10;99.90
5850;DHT22;2951;47.712;9.400;2023-07-08T01:15:58;21.00;99.90
5850;DHT22;2951;47.712;9.400;2023-07-08T01:18:26;20.80;99.90
5850;DHT22;2951;47.712;9.400;2023-07-08T01:20:52;20.70;99.90
5850;DHT22;2951;47.712;9.400;2023-07-08T01:23:22;20.70;99.90
5850;DHT22;2951;47.712;9.400;2023-07-08T01:25:49;20.70;99.90
5850;DHT22;2951;47.712;9.400;2023-07-08T01:28:16;20.60;99.90
5850;DHT22;2951;47.712;9.400;2023-07-08T01:30:43;20.40;99.90
5850;DHT22;2951;47.712;9.400;2023-07-08T01:33:12;20.40;99.90
5850;DHT22;2951;47.712;9.400;2023-07-08T01:35:41;20.50;99.90
5850;DHT22;2951;47.712;9.400;2023-07-08T01:38:08;20.60;99.90
5850;DHT22;2951;47.712;9.400;2023-07-08T01:40:37;20.80;99.90
5850;DHT22;2951;47.712;9.400;2023-07-08T01:43:04;20.80;99.90
5850;DHT22;2951;47.712;9.400;2023-07-08T01:45:36;20.80;99.90
5850;DHT22;2951;47.712;9.400;2023-07-08T01:50:31;21.00;99.90
5850;DHT22;2951;47.712;9.400;2023-07-08T01:52:59;21.10;99.90
5850;DHT22;2951;47.712;9.400;2023-07-08T01:55:26;21.20;99.90
5850;DHT22;2951;47.712;9.400;2023-07-08T01:57:57;21.40;99.90
5850;DHT22;2951;47.712;9.400;2023-07-08T02:00:23;21.50;99.90
5850;DHT22;2951;47.712;9.400;2023-07-08T02:02:50;21.70;99.90
5850;DHT22;2951;47.712;9.400;2023-07-08T02:05:17;21.90;99.90
5850;DHT22;2951;47.712;9.400;2023-07-08T02:07:44;22.10;99.90
5850;DHT22;2951;47.712;9.400;2023-07-08T02:10:11;22.00;99.90
5850;DHT22;2951;47.712;9.400;2023-07-08T02:12:38;21.90;99.90
5850;DHT22;2951;47.712;9.400;2023-07-08T02:15:05;21.80;99.90
5850;DHT22;2951;47.712;9.400;2023-07-08T02:17:32;21.60;99.90
5850;DHT22;2951;47.712;9.400;2023-07-08T02:19:59;21.60;99.90
5850;DHT22;2951;47.712;9.400;2023-07-08T02:22:26;21.40;99.90
5850;DHT22;2951;47.712;9.400;2023-07-08T02:24:53;21.00;99.90
5850;DHT22;2951;47.712;9.400;2023-07-08T02:27:19;20.80;99.90
5850;DHT22;2951;47.712;9.400;2023-07-08T02:29:46;20.60;99.90
5850;DHT22;2951;47.712;9.400;2023-07-08T02:32:13;20.40;99.90
5850;DHT22;2951;47.712;9.400;2023-07-08T02:34:39;20.40;99.90
5850;DHT22;2951;47.712;9.400;2023-07-08T02:37:06;20.30;99.90
5850;DHT22;2951;47.712;9.400;2023-07-08T02:39:33;20.50;99.90
5850;DHT22;2951;47.712;9.400;2023-07-08T02:42:00;20.40;99.90
5850;DHT22;2951;47.712;9.400;2023-07-08T02:44:27;20.20;99.90
5850;DHT22;2951;47.712;9.400;2023-07-08T02:46:54;20.30;99.90
5850;DHT22;2951;47.712;9.400;2023-07-08T02:49:21;20.20;99.90
5850;DHT22;2951;47.712;9.400;2023-07-08T02:51:47;19.90;99.90
5850;DHT22;2951;47.712;9.400;2023-07-08T02:54:14;19.90;99.90
5850;DHT22;2951;47.712;9.400;2023-07-08T02:56:40;19.90;99.90
5850;DHT22;2951;47.712;9.400;2023-07-08T02:59:07;19.80;99.90
5850;DHT22;2951;47.712;9.400;2023-07-08T03:01:34;19.70;99.90
5850;DHT22;2951;47.712;9.400;2023-07-08T03:04:08;19.60;99.90
5850;DHT22;2951;47.712;9.400;2023-07-08T03:06:43;19.60;99.90
5850;DHT22;2951;47.712;9.400;2023-07-08T03:09:10;19.60;99.90
5850;DHT22;2951;47.712;9.400;2023-07-08T03:11:38;19.60;99.90
5850;DHT22;2951;47.712;9.400;2023-07-08T03:14:05;19.30;99.90
5850;DHT22;2951;47.712;9.400;2023-07-08T03:16:32;19.30;99.90
5850;DHT22;2951;47.712;9.400;2023-07-08T03:18:59;19.20;99.90
5850;DHT22;2951;47.712;9.400;2023-07-08T03:21:26;19.00;99.90
5850;DHT22;2951;47.712;9.400;2023-07-08T03:23:52;18.90;99.90
5850;DHT22;2951;47.712;9.400;2023-07-08T03:26:20;19.00;99.90
5850;DHT22;2951;47.712;9.400;2023-07-08T03:28:47;18.90;99.90
5850;DHT22;2951;47.712;9.400;2023-07-08T03:31:15;19.00;99.90
5850;DHT22;2951;47.712;9.400;2023-07-08T03:33:42;18.90;99.90
5850;DHT22;2951;47.712;9.400;2023-07-08T03:36:27;18.90;99.90
5850;DHT22;2951;47.712;9.400;2023-07-08T03:38:57;18.80;99.90
5850;DHT22;2951;47.712;9.400;2023-07-08T03:41:24;18.60;99.90
5850;DHT22;2951;47.712;9.400;2023-07-08T03:43:51;18.50;99.90
5850;DHT22;2951;47.712;9.400;2023-07-08T03:46:18;18.60;99.90
5850;DHT22;2951;47.712;9.400;2023-07-08T03:48:45;18.70;99.90
5850;DHT22;2951;47.712;9.400;2023-07-08T03:51:16;18.70;99.90
5850;DHT22;2951;47.712;9.400;2023-07-08T03:53:43;18.70;99.90
5850;DHT22;2951;47.712;9.400;2023-07-08T03:56:11;18.80;99.90
5850;DHT22;2951;47.712;9.400;2023-07-08T03:58:39;18.80;99.90
5850;DHT22;2951;47.712;9.400;2023-07-08T04:01:09;18.80;99.90
5850;DHT22;2951;47.712;9.400;2023-07-08T04:03:42;18.90;99.90
5850;DHT22;2951;47.712;9.400;2023-07-08T04:06:09;19.00;99.90
5850;DHT22;2951;47.712;9.400;2023-07-08T04:08:35;19.10;99.90
5850;DHT22;2951;47.712;9.400;2023-07-08T04:11:02;19.20;99.90
5850;DHT22;2951;47.712;9.400;2023-07-08T04:13:29;19.20;99.90
5850;DHT22;2951;47.712;9.400;2023-07-08T04:15:57;19.20;99.90
5850;DHT22;2951;47.712;9.400;2023-07-08T04:18:25;19.30;99.90
5850;DHT22;2951;47.712;9.400;2023-07-08T04:20:52;19.20;99.90
5850;DHT22;2951;47.712;9.400;2023-07-08T04:23:24;19.30;99.90
5850;DHT22;2951;47.712;9.400;2023-07-08T04:25:52;19.20;99.90
5850;DHT22;2951;47.712;9.400;2023-07-08T04:28:20;19.20;99.90
5850;DHT22;2951;47.712;9.400;2023-07-08T04:30:47;19.20;99.90
5850;DHT22;2951;47.712;9.400;2023-07-08T04:33:14;19.20;99.90
5850;DHT22;2951;47.712;9.400;2023-07-08T04:35:41;19.10;99.90
5850;DHT22;2951;47.712;9.400;2023-07-08T04:40:41;19.00;99.90
5850;DHT22;2951;47.712;9.400;2023-07-08T04:43:08;19.00;99.90
5850;DHT22;2951;47.712;9.400;2023-07-08T04:45:37;19.00;99.90
5850;DHT22;2951;47.712;9.400;2023-07-08T04:48:04;19.10;99.90
5850;DHT22;2951;47.712;9.400;2023-07-08T04:50:35;19.10;99.90
5850;DHT22;2951;47.712;9.400;2023-07-08T04:53:01;19.20;99.90
5850;DHT22;2951;47.712;9.400;2023-07-08T04:55:28;19.30;99.90
5850;DHT22;2951;47.712;9.400;2023-07-08T04:57:55;19.40;99.90
5850;DHT22;2951;47.712;9.400;2023-07-08T05:00:22;19.50;99.90
5850;DHT22;2951;47.712;9.400;2023-07-08T05:02:48;19.40;99.90
5850;DHT22;2951;47.712;9.400;2023-07-08T05:05:15;19.40;99.90
5850;DHT22;2951;47.712;9.400;2023-07-08T05:07:42;19.40;99.90
5850;DHT22;2951;47.712;9.400;2023-07-08T05:10:09;19.50;99.90
5850;DHT22;2951;47.712;9.400;2023-07-08T05:12:36;19.50;99.90
5850;DHT22;2951;47.712;9.400;2023-07-08T05:15:03;19.50;99.90
5850;DHT22;2951;47.712;9.400;2023-07-08T05:17:31;19.50;99.90
5850;DHT22;2951;47.712;9.400;2023-07-08T05:19:58;19.70;99.90
5850;DHT22;2951;47.712;9.400;2023-07-08T05:22:27;19.70;99.90
5850;DHT22;2951;47.712;9.400;2023-07-08T05:24:53;19.80;99.90
5850;DHT22;2951;47.712;9.400;2023-07-08T05:27:23;19.90;99.90
5850;DHT22;2951;47.712;9.400;2023-07-08T05:29:50;19.70;99.90
5850;DHT22;2951;47.712;9.400;2023-07-08T05:32:17;19.80;99.90
5850;DHT22;2951;47.712;9.400;2023-07-08T05:34:44;19.90;99.90
5850;DHT22;2951;47.712;9.400;2023-07-08T05:37:11;19.90;99.90
5850;DHT22;2951;47.712;9.400;2023-07-08T05:39:38;20.00;99.90
5850;DHT22;2951;47.712;9.400;2023-07-08T05:42:05;20.10;99.90
5850;DHT22;2951;47.712;9.400;2023-07-08T05:44:31;20.10;99.90
5850;DHT22;2951;47.712;9.400;2023-07-08T05:46:58;20.00;99.90
5850;DHT22;2951;47.712;9.400;2023-07-08T05:49:25;20.10;99.90
5850;DHT22;2951;47.712;9.400;2023-07-08T05:51:52;19.90;99.90
5850;DHT22;2951;47.712;9.400;2023-07-08T05:54:18;20.00;99.90
5850;DHT22;2951;47.712;9.400;2023-07-08T05:56:45;20.00;99.90
5850;DHT22;2951;47.712;9.400;2023-07-08T05:59:11;20.10;99.90
5850;DHT22;2951;47.712;9.400;2023-07-08T06:01:38;20.20;99.90
5850;DHT22;2951;47.712;9.400;2023-07-08T06:04:05;20.20;99.90
5850;DHT22;2951;47.712;9.400;2023-07-08T06:06:32;20.20;99.90
5850;DHT22;2951;47.712;9.400;2023-07-08T06:08:58;20.30;99.90
5850;DHT22;2951;47.712;9.400;2023-07-08T06:11:26;20.40;99.90
5850;DHT22;2951;47.712;9.400;2023-07-08T06:13:54;20.50;99.90
5850;DHT22;2951;47.712;9.400;2023-07-08T06:16:21;20.60;99.90
5850;DHT22;2951;47.712;9.400;2023-07-08T06:19:00;20.80;99.90
5850;DHT22;2951;47.712;9.400;2023-07-08T06:21:27;20.90;99.90
5850;DHT22;2951;47.712;9.400;2023-07-08T06:23:54;21.00;99.90
5850;DHT22;2951;47.712;9.400;2023-07-08T06:26:20;21.10;99.90
5850;DHT22;2951;47.712;9.400;2023-07-08T06:28:47;21.20;99.90
5850;DHT22;2951;47.712;9.400;2023-07-08T06:31:14;21.10;99.90
5850;DHT22;2951;47.712;9.400;2023-07-08T06:33:41;21.20;99.90
5850;DHT22;2951;47.712;9.400;2023-07-08T06:36:08;21.10;99.90
5850;DHT22;2951;47.712;9.400;2023-07-08T06:38:34;21.10;99.90
5850;DHT22;2951;47.712;9.400;2023-07-08T06:41:01;21.20;99.90
5850;DHT22;2951;47.712;9.400;2023-07-08T06:43:28;21.20;99.90
5850;DHT22;2951;47.712;9.400;2023-07-08T06:45:55;21.20;99.90
5850;DHT22;2951;47.712;9.400;2023-07-08T06:48:21;21.00;99.90
5850;DHT22;2951;47.712;9.400;2023-07-08T06:50:48;21.00;99.90
5850;DHT22;2951;47.712;9.400;2023-07-08T06:53:15;20.90;99.90
5850;DHT22;2951;47.712;9.400;2023-07-08T06:55:43;20.80;99.90
5850;DHT22;2951;47.712;9.400;2023-07-08T06:58:10;20.90;99.90
5850;DHT22;2951;47.712;9.400;2023-07-08T07:00:37;20.90;99.90
5850;DHT22;2951;47.712;9.400;2023-07-08T07:03:03;20.80;99.90
5850;DHT22;2951;47.712;9.400;2023-07-08T07:05:30;20.70;99.90
5850;DHT22;2951;47.712;9.400;2023-07-08T07:07:57;20.70;99.90
5850;DHT22;2951;47.712;9.400;2023-07-08T07:10:24;20.90;99.90
5850;DHT22;2951;47.712;9.400;2023-07-08T07:12:51;20.80;99.90
5850;DHT22;2951;47.712;9.400;2023-07-08T07:15:17;21.00;99.90
5850;DHT22;2951;47.712;9.400;2023-07-08T07:17:44;21.20;99.90
5850;DHT22;2951;47.712;9.400;2023-07-08T07:20:11;21.20;99.90
5850;DHT22;2951;47.712;9.400;2023-07-08T07:22:38;21.50;99.90
5850;DHT22;2951;47.712;9.400;2023-07-08T07:25:05;21.60;99.90
5850;DHT22;2951;47.712;9.400;2023-07-08T07:27:32;21.70;99.90
5850;DHT22;2951;47.712;9.400;2023-07-08T07:29:58;21.60;99.90
5850;DHT22;2951;47.712;9.400;2023-07-08T07:32:26;21.70;99.90
5850;DHT22;2951;47.712;9.400;2023-07-08T07:34:53;21.90;99.90
5850;DHT22;2951;47.712;9.400;2023-07-08T07:37:20;21.70;99.90
5850;DHT22;2951;47.712;9.400;2023-07-08T07:39:47;21.50;99.90
5850;DHT22;2951;47.712;9.400;2023-07-08T07:42:14;21.50;99.90
5850;DHT22;2951;47.712;9.400;2023-07-08T07:44:42;21.50;99.90
5850;DHT22;2951;47.712;9.400;2023-07-08T07:47:09;21.70;99.90
5850;DHT22;2951;47.712;9.400;2023-07-08T07:49:37;21.60;99.90
5850;DHT22;2951;47.712;9.400;2023-07-08T07:52:04;21.70;99.90
5850;DHT22;2951;47.712;9.400;2023-07-08T07:54:30;21.90;99.90
5850;DHT22;2951;47.712;9.400;2023-07-08T07:56:57;21.80;99.90
5850;DHT22;2951;47.712;9.400;2023-07-08T07:59:25;21.70;99.90
5850;DHT22;2951;47.712;9.400;2023-07-08T08:01:51;21.70;99.90
5850;DHT22;2951;47.712;9.400;2023-07-08T08:04:18;21.60;99.90
5850;DHT22;2951;47.712;9.400;2023-07-08T08:06:45;21.70;99.90
5850;DHT22;2951;47.712;9.400;2023-07-08T08:09:12;21.60;99.90
5850;DHT22;2951;47.712;9.400;2023-07-08T08:11:38;21.90;99.90
5850;DHT22;2951;47.712;9.400;2023-07-08T08:14:05;21.90;99.90
5850;DHT22;2951;47.712;9.400;2023-07-08T08:16:32;22.30;99.90
5850;DHT22;2951;47.712;9.400;2023-07-08T08:18:58;22.40;99.90
5850;DHT22;2951;47.712;9.400;2023-07-08T08:21:25;22.50;99.90
5850;DHT22;2951;47.712;9.400;2023-07-08T08:23:52;22.40;99.90
5850;DHT22;2951;47.712;9.400;2023-07-08T08:26:19;22.50;99.90
5850;DHT22;2951;47.712;9.400;2023-07-08T08:28:45;22.50;99.90
5850;DHT22;2951;47.712;9.400;2023-07-08T08:31:12;22.70;99.90
5850;DHT22;2951;47.712;9.400;2023-07-08T08:33:39;22.70;99.90
5850;DHT22;2951;47.712;9.400;2023-07-08T08:36:05;22.90;99.90
5850;DHT22;2951;47.712;9.400;2023-07-08T08:38:32;22.90;99.90
5850;DHT22;2951;47.712;9.400;2023-07-08T08:41:02;23.20;99.90
5850;DHT22;2951;47.712;9.400;2023-07-08T08:43:36;23.20;99.90
5850;DHT22;2951;47.712;9.400;2023-07-08T08:46:09;23.30;99.90
5850;DHT22;2951;47.712;9.400;2023-07-08T08:48:43;23.20;99.90
5850;DHT22;2951;47.712;9.400;2023-07-08T08:51:14;23.40;99.90
5850;DHT22;2951;47.712;9.400;2023-07-08T08:53:41;23.50;99.90
5850;DHT22;2951;47.712;9.400;2023-07-08T08:56:18;23.50;99.90
5850;DHT22;2951;47.712;9.400;2023-07-08T08:58:50;23.60;99.90
5850;DHT22;2951;47.712;9.400;2023-07-08T09:01:18;23.70;99.90
5850;DHT22;2951;47.712;9.400;2023-07-08T09:03:52;23.70;99.90
5850;DHT22;2951;47.712;9.400;2023-07-08T09:06:25;23.80;99.90
5850;DHT22;2951;47.712;9.400;2023-07-08T09:08:52;23.90;99.90
5850;DHT22;2951;47.712;9.400;2023-07-08T09:14:12;24.40;99.90
5850;DHT22;2951;47.712;9.400;2023-07-08T09:19:09;24.50;99.90
5850;DHT22;2951;47.712;9.400;2023-07-08T09:21:40;24.70;99.90
5850;DHT22;2951;47.712;9.400;2023-07-08T09:24:10;24.90;99.90
5850;DHT22;2951;47.712;9.400;2023-07-08T09:26:39;24.40;99.90
5850;DHT22;2951;47.712;9.400;2023-07-08T09:29:08;24.60;99.90
5850;DHT22;2951;47.712;9.400;2023-07-08T09:31:37;24.60;99.90
5850;DHT22;2951;47.712;9.400;2023-07-08T09:36:42;25.10;99.90
5850;DHT22;2951;47.712;9.400;2023-07-08T09:39:10;25.00;99.90
5850;DHT22;2951;47.712;9.400;2023-07-08T09:41:37;25.20;99.90
5850;DHT22;2951;47.712;9.400;2023-07-08T09:44:24;25.00;99.90
5850;DHT22;2951;47.712;9.400;2023-07-08T09:46:53;24.90;99.90
5850;DHT22;2951;47.712;9.400;2023-07-08T09:49:21;24.70;99.90
5850;DHT22;2951;47.712;9.400;2023-07-08T09:51:49;24.90;99.90
5850;DHT22;2951;47.712;9.400;2023-07-08T09:54:20;24.70;99.90
5850;DHT22;2951;47.712;9.400;2023-07-08T09:59:31;24.80;99.90
5850;DHT22;2951;47.712;9.400;2023-07-08T10:02:00;25.20;99.90
5850;DHT22;2951;47.712;9.400;2023-07-08T10:04:27;24.70;99.90
5850;DHT22;2951;47.712;9.400;2023-07-08T10:06:54;24.90;99.90
5850;DHT22;2951;47.712;9.400;2023-07-08T10:09:23;25.20;99.90
5850;DHT22;2951;47.712;9.400;2023-07-08T10:12:12;25.20;99.90
5850;DHT22;2951;47.712;9.400;2023-07-08T10:14:39;24.90;99.90
5850;DHT22;2951;47.712;9.400;2023-07-08T10:17:26;25.20;99.90
5850;DHT22;2951;47.712;9.400;2023-07-08T10:19:53;25.30;99.90
5850;DHT22;2951;47.712;9.400;2023-07-08T10:22:41;25.00;99.90
5850;DHT22;2951;47.712;9.400;2023-07-08T10:25:11;25.10;99.90
5850;DHT22;2951;47.712;9.400;2023-07-08T10:27:47;25.40;99.90
5850;DHT22;2951;47.712;9.400;2023-07-08T10:30:20;25.50;99.90
5850;DHT22;2951;47.712;9.400;2023-07-08T10:35:42;25.50;99.90
5850;DHT22;2951;47.712;9.400;2023-07-08T10:43:25;25.50;99.90
5850;DHT22;2951;47.712;9.400;2023-07-08T10:46:03;25.60;99.90
5850;DHT22;2951;47.712;9.400;2023-07-08T10:51:10;25.60;99.90
5850;DHT22;2951;47.712;9.400;2023-07-08T10:53:42;25.90;99.90
5850;DHT22;2951;47.712;9.400;2023-07-08T10:56:15;26.20;99.90
5850;DHT22;2951;47.712;9.400;2023-07-08T10:58:52;26.50;99.90
5850;DHT22;2951;47.712;9.400;2023-07-08T11:04:19;26.10;99.90
5850;DHT22;2951;47.712;9.400;2023-07-08T11:09:17;26.40;99.90
5850;DHT22;2951;47.712;9.400;2023-07-08T11:12:01;26.50;99.90
5850;DHT22;2951;47.712;9.400;2023-07-08T11:20:03;27.00;99.90
5850;DHT22;2951;47.712;9.400;2023-07-08T11:22:37;27.00;99.90
5850;DHT22;2951;47.712;9.400;2023-07-08T11:25:07;26.80;99.90
5850;DHT22;2951;47.712;9.400;2023-07-08T11:27:42;26.90;99.90
5850;DHT22;2951;47.712;9.400;2023-07-08T11:30:16;27.10;99.90
5850;DHT22;2951;47.712;9.400;2023-07-08T11:32:44;27.40;99.90
5850;DHT22;2951;47.712;9.400;2023-07-08T11:35:23;27.90;99.90
5850;DHT22;2951;47.712;9.400;2023-07-08T11:37:52;28.10;99.90
5850;DHT22;2951;47.712;9.400;2023-07-08T11:42:48;28.10;99.90
5850;DHT22;2951;47.712;9.400;2023-07-08T11:45:31;28.30;99.90
5850;DHT22;2951;47.712;9.400;2023-07-08T11:50:35;28.00;99.90
5850;DHT22;2951;47.712;9.400;2023-07-08T11:53:07;27.90;99.90
5850;DHT22;2951;47.712;9.400;2023-07-08T11:58:20;28.30;99.90
5850;DHT22;2951;47.712;9.400;2023-07-08T12:00:57;27.70;99.90
5850;DHT22;2951;47.712;9.400;2023-07-08T12:03:32;28.10;99.90
5850;DHT22;2951;47.712;9.400;2023-07-08T12:06:00;28.20;99.90
5850;DHT22;2951;47.712;9.400;2023-07-08T12:08:33;27.70;99.90
5850;DHT22;2951;47.712;9.400;2023-07-08T12:11:03;27.80;99.90
5850;DHT22;2951;47.712;9.400;2023-07-08T12:13:36;28.10;99.90
5850;DHT22;2951;47.712;9.400;2023-07-08T12:16:07;27.80;99.90
5850;DHT22;2951;47.712;9.400;2023-07-08T12:18:35;28.10;99.90
5850;DHT22;2951;47.712;9.400;2023-07-08T12:21:02;28.30;99.90
5850;DHT22;2951;47.712;9.400;2023-07-08T12:23:29;28.20;99.90
5850;DHT22;2951;47.712;9.400;2023-07-08T12:25:56;28.20;99.90
5850;DHT22;2951;47.712;9.400;2023-07-08T12:28:24;28.10;99.90
5850;DHT22;2951;47.712;9.400;2023-07-08T12:30:51;28.10;99.90
5850;DHT22;2951;47.712;9.400;2023-07-08T12:33:22;28.00;99.90
5850;DHT22;2951;47.712;9.400;2023-07-08T12:35:50;28.00;99.90
5850;DHT22;2951;47.712;9.400;2023-07-08T12:40:44;28.30;99.90
5850;DHT22;2951;47.712;9.400;2023-07-08T12:43:11;28.30;99.90
5850;DHT22;2951;47.712;9.400;2023-07-08T12:45:38;28.60;99.90
5850;DHT22;2951;47.712;9.400;2023-07-08T12:48:05;29.10;99.90
5850;DHT22;2951;47.712;9.400;2023-07-08T12:50:31;29.20;99.90
5850;DHT22;2951;47.712;9.400;2023-07-08T12:52:58;29.10;99.90
5850;DHT22;2951;47.712;9.400;2023-07-08T12:55:31;29.20;99.90
5850;DHT22;2951;47.712;9.400;2023-07-08T12:57:58;29.10;99.90
5850;DHT22;2951;47.712;9.400;2023-07-08T13:00:26;29.10;99.90
5850;DHT22;2951;47.712;9.400;2023-07-08T13:02:58;29.00;99.90
5850;DHT22;2951;47.712;9.400;2023-07-08T13:05:25;29.10;99.90
5850;DHT22;2951;47.712;9.400;2023-07-08T13:07:53;29.00;99.90
5850;DHT22;2951;47.712;9.400;2023-07-08T13:10:20;28.90;99.90
5850;DHT22;2951;47.712;9.400;2023-07-08T13:12:48;28.80;99.90
5850;DHT22;2951;47.712;9.400;2023-07-08T13:15:23;29.00;99.90
5850;DHT22;2951;47.712;9.400;2023-07-08T13:17:51;29.20;99.90
5850;DHT22;2951;47.712;9.400;2023-07-08T13:20:19;29.20;99.90
5850;DHT22;2951;47.712;9.400;2023-07-08T13:22:49;29.10;99.90
5850;DHT22;2951;47.712;9.400;2023-07-08T13:25:17;29.70;99.90
5850;DHT22;2951;47.712;9.400;2023-07-08T13:28:13;29.50;99.90
5850;DHT22;2951;47.712;9.400;2023-07-08T13:30:48;29.80;99.90
5850;DHT22;2951;47.712;9.400;2023-07-08T13:33:16;29.70;99.90
5850;DHT22;2951;47.712;9.400;2023-07-08T13:35:42;29.30;99.90
5850;DHT22;2951;47.712;9.400;2023-07-08T13:38:17;29.00;99.90
5850;DHT22;2951;47.712;9.400;2023-07-08T13:40:45;29.30;99.90
5850;DHT22;2951;47.712;9.400;2023-07-08T13:43:12;29.20;99.90
5850;DHT22;2951;47.712;9.400;2023-07-08T13:45:42;29.20;99.90
5850;DHT22;2951;47.712;9.400;2023-07-08T13:48:19;29.10;99.90
5850;DHT22;2951;47.712;9.400;2023-07-08T13:50:51;28.90;99.90
5850;DHT22;2951;47.712;9.400;2023-07-08T13:53:42;29.30;99.90
5850;DHT22;2951;47.712;9.400;2023-07-08T13:58:44;30.00;99.90
5850;DHT22;2951;47.712;9.400;2023-07-08T14:01:15;30.10;99.90
5850;DHT22;2951;47.712;9.400;2023-07-08T14:03:43;30.70;99.90
5850;DHT22;2951;47.712;9.400;2023-07-08T14:06:14;32.10;99.90
5850;DHT22;2951;47.712;9.400;2023-07-08T14:08:41;33.40;99.90
5850;DHT22;2951;47.712;9.400;2023-07-08T14:11:08;32.90;99.90
5850;DHT22;2951;47.712;9.400;2023-07-08T14:13:35;32.80;99.90
5850;DHT22;2951;47.712;9.400;2023-07-08T14:16:02;33.20;99.90
5850;DHT22;2951;47.712;9.400;2023-07-08T14:18:32;33.10;99.90
5850;DHT22;2951;47.712;9.400;2023-07-08T14:20:59;33.00;99.90
5850;DHT22;2951;47.712;9.400;2023-07-08T14:23:26;33.00;99.90
5850;DHT22;2951;47.712;9.400;2023-07-08T14:25:52;33.40;99.90
5850;DHT22;2951;47.712;9.400;2023-07-08T14:28:19;33.00;99.90
5850;DHT22;2951;47.712;9.400;2023-07-08T14:30:47;33.10;99.90
5850;DHT22;2951;47.712;9.400;2023-07-08T14:33:14;33.70;99.90
5850;DHT22;2951;47.712;9.400;2023-07-08T14:35:41;34.40;99.90
5850;DHT22;2951;47.712;9.400;2023-07-08T14:38:11;34.80;99.90
5850;DHT22;2951;47.712;9.400;2023-07-08T14:40:41;35.60;99.90
5850;DHT22;2951;47.712;9.400;2023-07-08T14:45:39;34.60;99.90
5850;DHT22;2951;47.712;9.400;2023-07-08T14:48:10;34.90;99.90
5850;DHT22;2951;47.712;9.400;2023-07-08T14:50:37;33.60;99.90
5850;DHT22;2951;47.712;9.400;2023-07-08T14:53:04;33.80;99.90
5850;DHT22;2951;47.712;9.400;2023-07-08T14:55:31;34.20;99.90
5850;DHT22;2951;47.712;9.400;2023-07-08T14:57:58;34.40;99.90
5850;DHT22;2951;47.712;9.400;2023-07-08T15:00:25;34.50;99.90
5850;DHT22;2951;47.712;9.400;2023-07-08T15:02:52;34.50;99.90
5850;DHT22;2951;47.712;9.400;2023-07-08T15:05:20;35.60;99.90
5850;DHT22;2951;47.712;9.400;2023-07-08T15:07:56;35.20;99.90
5850;DHT22;2951;47.712;9.400;2023-07-08T15:10:24;36.20;99.90
5850;DHT22;2951;47.712;9.400;2023-07-08T15:12:52;36.40;99.90
5850;DHT22;2951;47.712;9.400;2023-07-08T15:15:29;35.50;99.90
5850;DHT22;2951;47.712;9.400;2023-07-08T15:17:56;35.70;99.90
5850;DHT22;2951;47.712;9.400;2023-07-08T15:20:24;36.70;99.90
5850;DHT22;2951;47.712;9.400;2023-07-08T15:22:51;36.70;99.90
5850;DHT22;2951;47.712;9.400;2023-07-08T15:25:18;37.50;99.90
5850;DHT22;2951;47.712;9.400;2023-07-08T15:27:46;36.70;99.90
5850;DHT22;2951;47.712;9.400;2023-07-08T15:30:15;36.30;99.90
5850;DHT22;2951;47.712;9.400;2023-07-08T15:32:43;36.10;99.90
5850;DHT22;2951;47.712;9.400;2023-07-08T15:35:17;35.80;99.90
5850;DHT22;2951;47.712;9.400;2023-07-08T15:37:44;36.50;99.90
5850;DHT22;2951;47.712;9.400;2023-07-08T15:40:16;36.70;99.90
5850;DHT22;2951;47.712;9.400;2023-07-08T15:42:43;36.70;99.90
5850;DHT22;2951;47.712;9.400;2023-07-08T15:47:43;36.40;99.90
5850;DHT22;2951;47.712;9.400;2023-07-08T15:50:14;36.00;99.90
5850;DHT22;2951;47.712;9.400;2023-07-08T15:52:41;36.40;99.90
5850;DHT22;2951;47.712;9.400;2023-07-08T15:55:08;37.40;99.90
5850;DHT22;2951;47.712;9.400;2023-07-08T15:57:48;37.20;99.90
5850;DHT22;2951;47.712;9.400;2023-07-08T16:00:19;37.30;99.90
5850;DHT22;2951;47.712;9.400;2023-07-08T16:02:50;37.30;99.90
5850;DHT22;2951;47.712;9.400;2023-07-08T16:05:18;37.40;99.90
5850;DHT22;2951;47.712;9.400;2023-07-08T16:07:46;36.30;99.90
5850;DHT22;2951;47.712;9.400;2023-07-08T16:10:13;35.90;99.90
5850;DHT22;2951;47.712;9.400;2023-07-08T16:12:40;36.80;99.90
5850;DHT22;2951;47.712;9.400;2023-07-08T16:15:11;36.20;99.90
5850;DHT22;2951;47.712;9.400;2023-07-08T16:17:38;35.60;99.90
5850;DHT22;2951;47.712;9.400;2023-07-08T16:20:24;35.20;99.90
5850;DHT22;2951;47.712;9.400;2023-07-08T16:22:51;34.70;99.90
5850;DHT22;2951;47.712;9.400;2023-07-08T16:25:19;34.40;99.90
5850;DHT22;2951;47.712;9.400;2023-07-08T16:27:47;34.30;99.90
5850;DHT22;2951;47.712;9.400;2023-07-08T16:30:19;33.80;99.90
5850;DHT22;2951;47.712;9.400;2023-07-08T16:32:47;33.60;99.90
5850;DHT22;2951;47.712;9.400;2023-07-08T16:35:15;33.40;99.90
5850;DHT22;2951;47.712;9.400;2023-07-08T16:37:43;33.40;99.90
5850;DHT22;2951;47.712;9.400;2023-07-08T16:40:13;33.20;99.90
5850;DHT22;2951;47.712;9.400;2023-07-08T16:42:41;33.10;99.90
5850;DHT22;2951;47.712;9.400;2023-07-08T16:45:10;32.90;99.90
5850;DHT22;2951;47.712;9.400;2023-07-08T16:47:39;32.70;99.90
5850;DHT22;2951;47.712;9.400;2023-07-08T16:50:06;32.60;99.90
5850;DHT22;2951;47.712;9.400;2023-07-08T16:52:34;32.60;99.90
5850;DHT22;2951;47.712;9.400;2023-07-08T16:55:02;32.50;99.90
5850;DHT22;2951;47.712;9.400;2023-07-08T16:57:30;32.50;99.90
5850;DHT22;2951;47.712;9.400;2023-07-08T16:59:57;32.40;99.90
5850;DHT22;2951;47.712;9.400;2023-07-08T17:02:24;32.20;99.90
5850;DHT22;2951;47.712;9.400;2023-07-08T17:04:52;32.10;99.90
5850;DHT22;2951;47.712;9.400;2023-07-08T17:07:19;32.00;99.90
5850;DHT22;2951;47.712;9.400;2023-07-08T17:09:45;32.00;99.90
5850;DHT22;2951;47.712;9.400;2023-07-08T17:12:12;31.90;99.90
5850;DHT22;2951;47.712;9.400;2023-07-08T17:14:39;31.80;99.90